sensor_id;sensor_type;location;lat;lon;timestamp;P1;durP1;ratioP1;P2;durP2;ratioP2
68647;SDS011;55632;51.962;16.116;2023-09-19T00:04:13;5.93;;;2.95;;
68647;SDS011;55632;51.962;16.116;2023-09-19T00:09:15;4.43;;;2.40;;
68647;SDS011;55632;51.962;16.116;2023-09-19T00:14:16;6.88;;;2.50;;
68647;SDS011;55632;51.962;16.116;2023-09-19T00:19:17;5.25;;;2.40;;
68647;SDS011;55632;51.962;16.116;2023-09-19T00:24:18;6.85;;;1.83;;
68647;SDS011;55632;51.962;16.116;2023-09-19T00:29:19;3.55;;;2.10;;
68647;SDS011;55632;51.962;16.116;2023-09-19T00:34:20;5.10;;;2.28;;
68647;SDS011;55632;51.962;16.116;2023-09-19T00:39:21;2.95;;;1.80;;
68647;SDS011;55632;51.962;16.116;2023-09-19T00:44:22;4.45;;;2.10;;
68647;SDS011;55632;51.962;16.116;2023-09-19T00:49:24;4.38;;;2.00;;
68647;SDS011;55632;51.962;16.116;2023-09-19T00:54:26;5.28;;;2.10;;
68647;SDS011;55632;51.962;16.116;2023-09-19T00:59:28;5.88;;;2.42;;
68647;SDS011;55632;51.962;16.116;2023-09-19T01:04:31;5.32;;;2.60;;
68647;SDS011;55632;51.962;16.116;2023-09-19T01:09:32;4.57;;;2.55;;
68647;SDS011;55632;51.962;16.116;2023-09-19T01:14:42;5.82;;;2.55;;
68647;SDS011;55632;51.962;16.116;2023-09-19T01:30:45;4.85;;;2.28;;
68647;SDS011;55632;51.962;16.116;2023-09-19T01:35:51;5.20;;;2.40;;
68647;SDS011;55632;51.962;16.116;2023-09-19T01:41:01;6.78;;;2.80;;
68647;SDS011;55632;51.962;16.116;2023-09-19T01:46:12;7.70;;;3.42;;
68647;SDS011;55632;51.962;16.116;2023-09-19T01:51:20;6.63;;;3.45;;
68647;SDS011;55632;51.962;16.116;2023-09-19T02:01:53;7.97;;;3.17;;
68647;SDS011;55632;51.962;16.116;2023-09-19T02:06:55;4.00;;;2.80;;
68647;SDS011;55632;51.962;16.116;2023-09-19T02:11:56;7.88;;;2.85;;
68647;SDS011;55632;51.962;16.116;2023-09-19T02:16:57;5.85;;;3.30;;
68647;SDS011;55632;51.962;16.116;2023-09-19T02:21:59;4.38;;;2.70;;
68647;SDS011;55632;51.962;16.116;2023-09-19T02:27:03;7.55;;;3.08;;
68647;SDS011;55632;51.962;16.116;2023-09-19T02:32:05;7.43;;;3.15;;
68647;SDS011;55632;51.962;16.116;2023-09-19T02:37:06;4.00;;;3.03;;
68647;SDS011;55632;51.962;16.116;2023-09-19T02:42:08;7.18;;;3.70;;
68647;SDS011;55632;51.962;16.116;2023-09-19T02:47:09;6.55;;;3.28;;
68647;SDS011;55632;51.962;16.116;2023-09-19T02:52:10;7.88;;;4.20;;
68647;SDS011;55632;51.962;16.116;2023-09-19T02:57:11;7.03;;;3.85;;
68647;SDS011;55632;51.962;16.116;2023-09-19T03:02:14;8.50;;;3.80;;
68647;SDS011;55632;51.962;16.116;2023-09-19T03:07:16;8.35;;;3.05;;
68647;SDS011;55632;51.962;16.116;2023-09-19T03:12:17;6.18;;;3.22;;
68647;SDS011;55632;51.962;16.116;2023-09-19T03:17:18;8.15;;;3.10;;
68647;SDS011;55632;51.962;16.116;2023-09-19T03:22:20;7.63;;;3.67;;
68647;SDS011;55632;51.962;16.116;2023-09-19T03:27:21;7.35;;;3.50;;
68647;SDS011;55632;51.962;16.116;2023-09-19T03:32:24;8.23;;;3.28;;
68647;SDS011;55632;51.962;16.116;2023-09-19T03:37:25;8.00;;;2.40;;
68647;SDS011;55632;51.962;16.116;2023-09-19T03:42:26;9.30;;;2.65;;
68647;SDS011;55632;51.962;16.116;2023-09-19T03:47:28;7.88;;;2.60;;
68647;SDS011;55632;51.962;16.116;2023-09-19T03:52:30;10.35;;;3.10;;
68647;SDS011;55632;51.962;16.116;2023-09-19T03:57:31;5.10;;;2.60;;
68647;SDS011;55632;51.962;16.116;2023-09-19T04:02:32;8.23;;;3.10;;
68647;SDS011;55632;51.962;16.116;2023-09-19T04:07:33;5.47;;;2.60;;
68647;SDS011;55632;51.962;16.116;2023-09-19T04:12:34;5.20;;;3.10;;
68647;SDS011;55632;51.962;16.116;2023-09-19T04:17:35;5.10;;;2.17;;
68647;SDS011;55632;51.962;16.116;2023-09-19T04:22:36;6.15;;;2.45;;
68647;SDS011;55632;51.962;16.116;2023-09-19T04:27:37;12.05;;;2.90;;
68647;SDS011;55632;51.962;16.116;2023-09-19T04:32:38;7.10;;;2.33;;
68647;SDS011;55632;51.962;16.116;2023-09-19T04:37:40;6.28;;;2.83;;
68647;SDS011;55632;51.962;16.116;2023-09-19T04:42:44;6.78;;;2.90;;
68647;SDS011;55632;51.962;16.116;2023-09-19T04:47:46;7.97;;;2.50;;
68647;SDS011;55632;51.962;16.116;2023-09-19T04:52:50;3.70;;;2.45;;
68647;SDS011;55632;51.962;16.116;2023-09-19T04:57:51;5.95;;;2.70;;
68647;SDS011;55632;51.962;16.116;2023-09-19T05:02:55;6.15;;;2.30;;
68647;SDS011;55632;51.962;16.116;2023-09-19T05:07:57;6.78;;;2.50;;
68647;SDS011;55632;51.962;16.116;2023-09-19T05:12:59;5.22;;;2.60;;
68647;SDS011;55632;51.962;16.116;2023-09-19T05:18:01;7.97;;;2.92;;
68647;SDS011;55632;51.962;16.116;2023-09-19T05:23:02;6.38;;;3.10;;
68647;SDS011;55632;51.962;16.116;2023-09-19T05:28:07;7.57;;;3.33;;
68647;SDS011;55632;51.962;16.116;2023-09-19T05:33:09;10.80;;;2.95;;
68647;SDS011;55632;51.962;16.116;2023-09-19T05:38:10;4.68;;;3.00;;
68647;SDS011;55632;51.962;16.116;2023-09-19T05:43:13;10.48;;;4.40;;
68647;SDS011;55632;51.962;16.116;2023-09-19T05:48:14;8.90;;;4.00;;
68647;SDS011;55632;51.962;16.116;2023-09-19T05:53:16;10.13;;;3.45;;
68647;SDS011;55632;51.962;16.116;2023-09-19T05:58:18;8.82;;;2.67;;
68647;SDS011;55632;51.962;16.116;2023-09-19T06:03:20;5.43;;;3.28;;
68647;SDS011;55632;51.962;16.116;2023-09-19T06:08:20;4.45;;;2.50;;
68647;SDS011;55632;51.962;16.116;2023-09-19T06:13:21;3.95;;;3.10;;
68647;SDS011;55632;51.962;16.116;2023-09-19T06:18:22;4.13;;;2.50;;
68647;SDS011;55632;51.962;16.116;2023-09-19T06:23:26;5.05;;;3.22;;
68647;SDS011;55632;51.962;16.116;2023-09-19T06:28:29;9.18;;;3.17;;
68647;SDS011;55632;51.962;16.116;2023-09-19T06:33:30;6.15;;;3.03;;
68647;SDS011;55632;51.962;16.116;2023-09-19T06:38:31;4.45;;;2.90;;
68647;SDS011;55632;51.962;16.116;2023-09-19T06:43:34;4.80;;;2.53;;
68647;SDS011;55632;51.962;16.116;2023-09-19T06:48:35;6.82;;;2.58;;
68647;SDS011;55632;51.962;16.116;2023-09-19T06:53:36;4.32;;;2.35;;
68647;SDS011;55632;51.962;16.116;2023-09-19T06:58:37;6.45;;;2.13;;
68647;SDS011;55632;51.962;16.116;2023-09-19T07:03:38;2.97;;;2.28;;
68647;SDS011;55632;51.962;16.116;2023-09-19T07:08:40;6.15;;;2.10;;
68647;SDS011;55632;51.962;16.116;2023-09-19T07:13:41;5.53;;;2.22;;
68647;SDS011;55632;51.962;16.116;2023-09-19T07:18:42;4.00;;;2.10;;
68647;SDS011;55632;51.962;16.116;2023-09-19T07:23:44;5.35;;;2.30;;
68647;SDS011;55632;51.962;16.116;2023-09-19T07:28:45;6.60;;;2.03;;
68647;SDS011;55632;51.962;16.116;2023-09-19T07:33:46;1.75;;;1.50;;
68647;SDS011;55632;51.962;16.116;2023-09-19T07:38:47;5.30;;;1.63;;
68647;SDS011;55632;51.962;16.116;2023-09-19T07:43:48;2.92;;;1.77;;
68647;SDS011;55632;51.962;16.116;2023-09-19T07:48:49;6.65;;;2.05;;
68647;SDS011;55632;51.962;16.116;2023-09-19T07:53:50;4.72;;;1.60;;
68647;SDS011;55632;51.962;16.116;2023-09-19T07:58:51;2.83;;;1.70;;
68647;SDS011;55632;51.962;16.116;2023-09-19T08:03:52;5.15;;;1.67;;
68647;SDS011;55632;51.962;16.116;2023-09-19T08:08:54;4.10;;;1.70;;
68647;SDS011;55632;51.962;16.116;2023-09-19T08:13:55;4.22;;;1.80;;
68647;SDS011;55632;51.962;16.116;2023-09-19T08:18:56;4.47;;;1.80;;
68647;SDS011;55632;51.962;16.116;2023-09-19T08:23:57;2.55;;;1.60;;
68647;SDS011;55632;51.962;16.116;2023-09-19T08:28:58;2.92;;;1.90;;
68647;SDS011;55632;51.962;16.116;2023-09-19T08:33:59;3.45;;;1.70;;
68647;SDS011;55632;51.962;16.116;2023-09-19T08:39:00;3.70;;;1.70;;
68647;SDS011;55632;51.962;16.116;2023-09-19T08:44:01;4.32;;;2.05;;
68647;SDS011;55632;51.962;16.116;2023-09-19T08:49:04;4.28;;;1.80;;
68647;SDS011;55632;51.962;16.116;2023-09-19T08:54:09;4.15;;;1.90;;
68647;SDS011;55632;51.962;16.116;2023-09-19T08:59:22;4.82;;;1.67;;
68647;SDS011;55632;51.962;16.116;2023-09-19T09:04:27;3.65;;;1.63;;
68647;SDS011;55632;51.962;16.116;2023-09-19T09:09:28;4.13;;;1.98;;
68647;SDS011;55632;51.962;16.116;2023-09-19T09:14:29;2.60;;;1.85;;
68647;SDS011;55632;51.962;16.116;2023-09-19T09:19:31;5.32;;;1.75;;
68647;SDS011;55632;51.962;16.116;2023-09-19T09:24:32;3.80;;;1.90;;
68647;SDS011;55632;51.962;16.116;2023-09-19T09:29:41;4.75;;;1.75;;
68647;SDS011;55632;51.962;16.116;2023-09-19T09:35:07;4.78;;;2.33;;
68647;SDS011;55632;51.962;16.116;2023-09-19T09:40:10;1.85;;;1.40;;
68647;SDS011;55632;51.962;16.116;2023-09-19T09:45:23;3.63;;;1.65;;
68647;SDS011;55632;51.962;16.116;2023-09-19T09:50:34;4.65;;;1.80;;
68647;SDS011;55632;51.962;16.116;2023-09-19T10:01:03;2.75;;;1.33;;
68647;SDS011;55632;51.962;16.116;2023-09-19T10:06:16;5.15;;;1.88;;
68647;SDS011;55632;51.962;16.116;2023-09-19T10:11:23;3.70;;;1.80;;
68647;SDS011;55632;51.962;16.116;2023-09-19T10:16:30;2.67;;;1.63;;
68647;SDS011;55632;51.962;16.116;2023-09-19T10:21:33;2.78;;;1.52;;
68647;SDS011;55632;51.962;16.116;2023-09-19T10:26:36;2.60;;;1.52;;
68647;SDS011;55632;51.962;16.116;2023-09-19T10:31:39;4.78;;;1.60;;
68647;SDS011;55632;51.962;16.116;2023-09-19T10:36:47;5.72;;;2.17;;
68647;SDS011;55632;51.962;16.116;2023-09-19T10:41:51;5.88;;;1.70;;
68647;SDS011;55632;51.962;16.116;2023-09-19T10:46:59;1.83;;;1.20;;
68647;SDS011;55632;51.962;16.116;2023-09-19T10:52:00;2.40;;;1.45;;
68647;SDS011;55632;51.962;16.116;2023-09-19T10:57:02;4.55;;;1.73;;
68647;SDS011;55632;51.962;16.116;2023-09-19T11:02:15;1.88;;;1.40;;
68647;SDS011;55632;51.962;16.116;2023-09-19T11:07:17;4.35;;;1.83;;
68647;SDS011;55632;51.962;16.116;2023-09-19T11:17:32;6.72;;;1.63;;
68647;SDS011;55632;51.962;16.116;2023-09-19T11:33:22;2.08;;;1.60;;
68647;SDS011;55632;51.962;16.116;2023-09-19T11:43:48;3.65;;;1.70;;
68647;SDS011;55632;51.962;16.116;2023-09-19T11:48:51;3.05;;;1.55;;
68647;SDS011;55632;51.962;16.116;2023-09-19T11:53:53;2.45;;;1.48;;
68647;SDS011;55632;51.962;16.116;2023-09-19T11:58:56;3.25;;;1.65;;
68647;SDS011;55632;51.962;16.116;2023-09-19T12:03:58;1.65;;;1.27;;
68647;SDS011;55632;51.962;16.116;2023-09-19T12:09:00;3.35;;;1.30;;
68647;SDS011;55632;51.962;16.116;2023-09-19T12:14:02;2.53;;;1.40;;
68647;SDS011;55632;51.962;16.116;2023-09-19T12:19:20;2.30;;;1.20;;
68647;SDS011;55632;51.962;16.116;2023-09-19T12:24:22;2.35;;;1.40;;
68647;SDS011;55632;51.962;16.116;2023-09-19T12:29:23;2.30;;;1.23;;
68647;SDS011;55632;51.962;16.116;2023-09-19T12:34:25;1.83;;;1.30;;
68647;SDS011;55632;51.962;16.116;2023-09-19T12:39:27;2.15;;;1.40;;
68647;SDS011;55632;51.962;16.116;2023-09-19T12:44:30;3.45;;;1.45;;
68647;SDS011;55632;51.962;16.116;2023-09-19T12:49:31;1.67;;;1.40;;
68647;SDS011;55632;51.962;16.116;2023-09-19T12:54:39;1.85;;;1.48;;
68647;SDS011;55632;51.962;16.116;2023-09-19T12:59:40;2.15;;;1.33;;
68647;SDS011;55632;51.962;16.116;2023-09-19T13:04:42;3.28;;;1.60;;
68647;SDS011;55632;51.962;16.116;2023-09-19T13:10:03;1.45;;;1.33;;
68647;SDS011;55632;51.962;16.116;2023-09-19T13:15:13;2.10;;;1.65;;
68647;SDS011;55632;51.962;16.116;2023-09-19T13:20:23;1.73;;;1.30;;
68647;SDS011;55632;51.962;16.116;2023-09-19T13:25:30;2.08;;;1.65;;
68647;SDS011;55632;51.962;16.116;2023-09-19T13:30:37;1.52;;;1.40;;
68647;SDS011;55632;51.962;16.116;2023-09-19T13:35:59;4.45;;;1.33;;
68647;SDS011;55632;51.962;16.116;2023-09-19T13:41:02;2.33;;;1.30;;
68647;SDS011;55632;51.962;16.116;2023-09-19T13:46:03;2.15;;;1.40;;
68647;SDS011;55632;51.962;16.116;2023-09-19T13:51:04;3.53;;;1.38;;
68647;SDS011;55632;51.962;16.116;2023-09-19T13:56:05;3.90;;;1.48;;
68647;SDS011;55632;51.962;16.116;2023-09-19T14:01:07;3.20;;;1.52;;
68647;SDS011;55632;51.962;16.116;2023-09-19T14:06:13;2.25;;;1.65;;
68647;SDS011;55632;51.962;16.116;2023-09-19T14:11:14;2.28;;;1.70;;
68647;SDS011;55632;51.962;16.116;2023-09-19T14:16:16;2.85;;;1.38;;
68647;SDS011;55632;51.962;16.116;2023-09-19T14:21:18;3.65;;;2.00;;
68647;SDS011;55632;51.962;16.116;2023-09-19T14:26:19;3.45;;;2.03;;
68647;SDS011;55632;51.962;16.116;2023-09-19T14:31:20;5.22;;;2.13;;
68647;SDS011;55632;51.962;16.116;2023-09-19T14:36:21;4.18;;;2.40;;
68647;SDS011;55632;51.962;16.116;2023-09-19T14:41:22;3.03;;;1.88;;
68647;SDS011;55632;51.962;16.116;2023-09-19T14:46:25;6.47;;;2.17;;
68647;SDS011;55632;51.962;16.116;2023-09-19T14:51:28;4.90;;;2.05;;
68647;SDS011;55632;51.962;16.116;2023-09-19T14:56:30;5.72;;;2.30;;
68647;SDS011;55632;51.962;16.116;2023-09-19T15:01:31;4.35;;;2.17;;
68647;SDS011;55632;51.962;16.116;2023-09-19T15:06:32;3.92;;;1.88;;
68647;SDS011;55632;51.962;16.116;2023-09-19T15:11:34;3.38;;;1.80;;
68647;SDS011;55632;51.962;16.116;2023-09-19T15:16:35;3.40;;;2.30;;
68647;SDS011;55632;51.962;16.116;2023-09-19T15:21:36;6.03;;;2.28;;
68647;SDS011;55632;51.962;16.116;2023-09-19T15:26:37;3.83;;;2.33;;
68647;SDS011;55632;51.962;16.116;2023-09-19T15:31:43;2.88;;;2.03;;
68647;SDS011;55632;51.962;16.116;2023-09-19T15:36:44;2.72;;;2.10;;
68647;SDS011;55632;51.962;16.116;2023-09-19T15:41:45;5.50;;;2.22;;
68647;SDS011;55632;51.962;16.116;2023-09-19T15:46:49;7.72;;;2.78;;
68647;SDS011;55632;51.962;16.116;2023-09-19T15:51:50;5.72;;;2.78;;
68647;SDS011;55632;51.962;16.116;2023-09-19T15:56:51;5.25;;;2.20;;
68647;SDS011;55632;51.962;16.116;2023-09-19T16:01:51;5.57;;;2.20;;
68647;SDS011;55632;51.962;16.116;2023-09-19T16:06:52;3.85;;;2.05;;
68647;SDS011;55632;51.962;16.116;2023-09-19T16:11:53;3.80;;;2.10;;
68647;SDS011;55632;51.962;16.116;2023-09-19T16:16:54;4.78;;;2.30;;
68647;SDS011;55632;51.962;16.116;2023-09-19T16:21:55;4.50;;;2.00;;
68647;SDS011;55632;51.962;16.116;2023-09-19T16:26:56;4.22;;;2.20;;
68647;SDS011;55632;51.962;16.116;2023-09-19T16:31:57;7.35;;;2.80;;
68647;SDS011;55632;51.962;16.116;2023-09-19T16:37:00;6.95;;;4.82;;
68647;SDS011;55632;51.962;16.116;2023-09-19T16:42:01;8.48;;;3.88;;
68647;SDS011;55632;51.962;16.116;2023-09-19T16:47:02;5.43;;;2.70;;
68647;SDS011;55632;51.962;16.116;2023-09-19T16:52:03;5.10;;;2.40;;
68647;SDS011;55632;51.962;16.116;2023-09-19T16:57:04;2.92;;;2.10;;
68647;SDS011;55632;51.962;16.116;2023-09-19T17:02:05;15.30;;;4.35;;
68647;SDS011;55632;51.962;16.116;2023-09-19T17:07:07;9.32;;;4.18;;
68647;SDS011;55632;51.962;16.116;2023-09-19T17:12:09;24.35;;;11.55;;
68647;SDS011;55632;51.962;16.116;2023-09-19T17:17:13;52.20;;;23.65;;
68647;SDS011;55632;51.962;16.116;2023-09-19T17:22:15;51.70;;;23.25;;
68647;SDS011;55632;51.962;16.116;2023-09-19T17:27:16;41.45;;;19.80;;
68647;SDS011;55632;51.962;16.116;2023-09-19T17:32:17;28.02;;;12.50;;
68647;SDS011;55632;51.962;16.116;2023-09-19T17:37:18;15.68;;;8.50;;
68647;SDS011;55632;51.962;16.116;2023-09-19T17:42:19;17.17;;;8.20;;
68647;SDS011;55632;51.962;16.116;2023-09-19T17:47:20;9.20;;;5.05;;
68647;SDS011;55632;51.962;16.116;2023-09-19T17:52:22;6.43;;;2.88;;
68647;SDS011;55632;51.962;16.116;2023-09-19T17:57:24;8.38;;;5.30;;
68647;SDS011;55632;51.962;16.116;2023-09-19T18:02:26;9.95;;;5.18;;
68647;SDS011;55632;51.962;16.116;2023-09-19T18:07:27;7.90;;;3.67;;
68647;SDS011;55632;51.962;16.116;2023-09-19T18:12:28;10.77;;;6.20;;
68647;SDS011;55632;51.962;16.116;2023-09-19T18:17:29;9.40;;;4.25;;
68647;SDS011;55632;51.962;16.116;2023-09-19T18:22:30;7.00;;;3.53;;
68647;SDS011;55632;51.962;16.116;2023-09-19T18:27:34;5.70;;;2.90;;
68647;SDS011;55632;51.962;16.116;2023-09-19T18:32:36;14.75;;;4.18;;
68647;SDS011;55632;51.962;16.116;2023-09-19T18:37:38;7.38;;;2.88;;
68647;SDS011;55632;51.962;16.116;2023-09-19T18:42:39;8.82;;;3.53;;
68647;SDS011;55632;51.962;16.116;2023-09-19T18:47:41;9.45;;;3.30;;
68647;SDS011;55632;51.962;16.116;2023-09-19T18:52:42;6.38;;;2.75;;
68647;SDS011;55632;51.962;16.116;2023-09-19T18:57:43;5.95;;;2.95;;
68647;SDS011;55632;51.962;16.116;2023-09-19T19:02:44;9.80;;;4.18;;
68647;SDS011;55632;51.962;16.116;2023-09-19T19:07:46;7.38;;;4.00;;
68647;SDS011;55632;51.962;16.116;2023-09-19T19:12:47;42.88;;;14.73;;
68647;SDS011;55632;51.962;16.116;2023-09-19T19:17:48;15.45;;;5.32;;
68647;SDS011;55632;51.962;16.116;2023-09-19T19:22:49;7.05;;;3.35;;
68647;SDS011;55632;51.962;16.116;2023-09-19T19:27:52;8.10;;;4.75;;
68647;SDS011;55632;51.962;16.116;2023-09-19T19:32:53;6.93;;;3.15;;
68647;SDS011;55632;51.962;16.116;2023-09-19T19:37:57;4.82;;;2.75;;
68647;SDS011;55632;51.962;16.116;2023-09-19T19:42:58;7.15;;;4.47;;
68647;SDS011;55632;51.962;16.116;2023-09-19T19:48:01;8.55;;;4.43;;
68647;SDS011;55632;51.962;16.116;2023-09-19T19:53:03;9.60;;;4.40;;
68647;SDS011;55632;51.962;16.116;2023-09-19T19:58:04;6.25;;;3.63;;
68647;SDS011;55632;51.962;16.116;2023-09-19T20:03:05;8.32;;;4.00;;
68647;SDS011;55632;51.962;16.116;2023-09-19T20:08:07;6.10;;;3.70;;
68647;SDS011;55632;51.962;16.116;2023-09-19T20:13:11;8.07;;;3.92;;
68647;SDS011;55632;51.962;16.116;2023-09-19T20:18:14;7.82;;;3.65;;
68647;SDS011;55632;51.962;16.116;2023-09-19T20:23:16;6.75;;;3.30;;
68647;SDS011;55632;51.962;16.116;2023-09-19T20:28:17;6.43;;;3.63;;
68647;SDS011;55632;51.962;16.116;2023-09-19T20:33:22;7.03;;;3.88;;
68647;SDS011;55632;51.962;16.116;2023-09-19T20:38:24;6.63;;;3.63;;
68647;SDS011;55632;51.962;16.116;2023-09-19T20:43:25;11.43;;;4.10;;
68647;SDS011;55632;51.962;16.116;2023-09-19T20:48:26;9.80;;;4.35;;
68647;SDS011;55632;51.962;16.116;2023-09-19T20:53:27;8.45;;;4.63;;
68647;SDS011;55632;51.962;16.116;2023-09-19T20:58:31;11.07;;;5.32;;
68647;SDS011;55632;51.962;16.116;2023-09-19T21:03:34;12.93;;;5.38;;
68647;SDS011;55632;51.962;16.116;2023-09-19T21:08:36;9.05;;;4.88;;
68647;SDS011;55632;51.962;16.116;2023-09-19T21:13:37;11.77;;;5.18;;
68647;SDS011;55632;51.962;16.116;2023-09-19T21:18:39;7.93;;;3.60;;
68647;SDS011;55632;51.962;16.116;2023-09-19T21:23:40;6.60;;;3.83;;
68647;SDS011;55632;51.962;16.116;2023-09-19T21:28:42;10.98;;;4.18;;
68647;SDS011;55632;51.962;16.116;2023-09-19T21:33:47;6.15;;;3.38;;
68647;SDS011;55632;51.962;16.116;2023-09-19T21:38:50;7.15;;;3.47;;
68647;SDS011;55632;51.962;16.116;2023-09-19T21:43:51;6.53;;;2.95;;
68647;SDS011;55632;51.962;16.116;2023-09-19T21:48:52;7.28;;;2.70;;
68647;SDS011;55632;51.962;16.116;2023-09-19T21:53:54;4.63;;;2.75;;
68647;SDS011;55632;51.962;16.116;2023-09-19T21:59:02;6.05;;;2.83;;
68647;SDS011;55632;51.962;16.116;2023-09-19T22:04:03;4.75;;;2.88;;
68647;SDS011;55632;51.962;16.116;2023-09-19T22:09:05;6.72;;;2.45;;
68647;SDS011;55632;51.962;16.116;2023-09-19T22:14:06;4.82;;;2.25;;
68647;SDS011;55632;51.962;16.116;2023-09-19T22:19:07;4.53;;;2.30;;
68647;SDS011;55632;51.962;16.116;2023-09-19T22:24:08;4.45;;;2.60;;
68647;SDS011;55632;51.962;16.116;2023-09-19T22:29:11;3.63;;;2.35;;
68647;SDS011;55632;51.962;16.116;2023-09-19T22:34:13;6.68;;;2.63;;
68647;SDS011;55632;51.962;16.116;2023-09-19T22:39:14;3.00;;;2.08;;
68647;SDS011;55632;51.962;16.116;2023-09-19T22:49:26;9.77;;;2.83;;
68647;SDS011;55632;51.962;16.116;2023-09-19T22:54:27;8.35;;;2.38;;
68647;SDS011;55632;51.962;16.116;2023-09-19T22:59:35;4.45;;;2.38;;
68647;SDS011;55632;51.962;16.116;2023-09-19T23:04:36;5.80;;;2.20;;
68647;SDS011;55632;51.962;16.116;2023-09-19T23:09:38;13.35;;;2.70;;
68647;SDS011;55632;51.962;16.116;2023-09-19T23:14:39;5.53;;;2.58;;
68647;SDS011;55632;51.962;16.116;2023-09-19T23:19:40;4.80;;;2.88;;
68647;SDS011;55632;51.962;16.116;2023-09-19T23:24:43;3.97;;;2.33;;
68647;SDS011;55632;51.962;16.116;2023-09-19T23:29:46;3.28;;;2.15;;
68647;SDS011;55632;51.962;16.116;2023-09-19T23:34:47;4.93;;;2.30;;
68647;SDS011;55632;51.962;16.116;2023-09-19T23:39:48;4.70;;;2.67;;
68647;SDS011;55632;51.962;16.116;2023-09-19T23:44:51;4.40;;;2.28;;
68647;SDS011;55632;51.962;16.116;2023-09-19T23:49:55;3.78;;;2.25;;
68647;SDS011;55632;51.962;16.116;2023-09-19T23:54:57;3.97;;;2.55;;
